Douglas, WY (82633)

6:18 AM MDT on September 02, 2015 (GMT -0600)
Converse County | | Change Station
CLOSE
Current Station
Airport
Location: Douglas,
Elevation: 4928 ft
Nearby Weather Stations
Active Advisory: Fire Weather Warning

Elev 4928 ft 42.80 °N, 105.38 °W | Updated 25 minutes ago

Partly Cloudy
Partly Cloudy
65 °F
Feels Like 65 °F
N
6
Wind Variable Wind from West

Today
High -- | Low -- °F
--% Chance of Precip.
Yesterday
High -- | Low -- °F
Precip. -- in
6:27 AM 7:35 PM
Waning Gibbous, 81% visible
Pressure 29.82 in
Visibility 10.0 miles
Clouds Clear
Dew Point 40 °F
Humidity 40%
Rainfall 0.00 in
Snow Depth Not available.
UV 0 out of 12
Pollen 10.10 out of 12
Air Quality Not available.
Flu Activity Not available.
METAR KDGW 021153Z AUTO 26005KT 10SM CLR 18/04 A3002 RMK AO2 SLP097 T01830044 10239 20167 51005
Pressure 29.82 in
Visibility 10.0 miles
Clouds Clear
Dew Point 40 °F
Humidity 40%
Rainfall 0.00 in
Snow Depth Not available.
UV 0 out of 12
Pollen 10.10 out of 12
Air Quality Not available.
Flu Activity Not available.
METAR KDGW 021153Z AUTO 26005KT 10SM CLR 18/04 A3002 RMK AO2 SLP097 T01830044 10239 20167 51005

10-Day Weather Forecast

×

Almanac

Astronomy

Sep. 02, 2015 Rise Set
Actual Time
Civil Twilight
Nautical Twilight
Astronomical Twilight
Moon
Length of Visible Light
Length of Day
Tomorrow will be .
, % of the Moon is Illuminated

Today's Extremes

State Highs State Lows

Community

WunderPhotos

Upload Photos

1,851,738 photos uploaded!

WunderBlogs® & News

Nearby

Air Quality

  Air Quality AQ Index Pollutant
Not available.

Snow Depth

Station Depth Elevation

Earthquake Activity

City Distance Mag. Time & Date
Minimum magnitude displayed is 2.5.

Coastal Water Temperatures

Place Temperature

Stations

Nearby Weather Stations

Station Location Temp. Windchill Dew Point Humidity Wind Precip. Elev Updated Type
                   
Fire Weather Warning
Statement as of 3:05 AM MDT on September 02, 2015

... Red flag warning remains in effect from noon today to 7 PM MDT
this evening for gusty winds and low humidities for fire weather
zones 301... 302... 303... 304... 306 and 308...

* wind... west to southwest winds of 15 to 25 mph sustained with
gusts to 35 mph.

* Humidity... late morning to afternoon humidities falling into
the upper single digits to lower teens.

* Impacts... any fires that develop will likely spread rapidly.
Outdoor burning is not recommended Wednesday.

Precautionary/preparedness actions...

A red flag warning means that critical fire weather conditions
are either occurring now... or will shortly. A combination of
strong winds... low relative humidity... and warm temperatures may
lead to extreme fire behavior.



Rubin